Time;durP1;ratioP1;P1;durP2;ratioP2;P2;SDS_P1;SDS_P2;PMS_P1;PMS_P2;Temp;Humidity;BMP_temperature;BMP_pressure;BME280_temperature;BME280_humidity;BME280_pressure;Samples;Min_cycle;Max_cycle;Signal;HPM_P1;HPM_P2
2020/12/09 00:02:39;;;;;;;32.07;18.47;;;;;;;-1.01;76.19;98701.66;2210122;81;21523;-81
2020/12/09 00:05:40;;;;;;;31.60;18.80;;;;;;;-1.01;76.36;98701.66;2210299;81;21118;-80
2020/12/09 00:08:41;;;;;;;29.67;16.77;;;;;;;-1.03;76.16;98703.25;2210347;81;21285;-79
2020/12/09 00:11:42;;;;;;;34.40;18.17;;;;;;;-1.04;76.47;98700.20;2209897;81;21542;-79
2020/12/09 00:14:44;;;;;;;34.03;18.17;;;;;;;-1.01;76.32;98697.81;2210204;81;21150;-79
2020/12/09 00:17:45;;;;;;;30.17;17.43;;;;;;;-1.01;76.22;98699.09;2210550;81;21150;-81
2020/12/09 00:20:52;;;;;;;39.17;19.30;;;;;;;-1.01;76.11;98697.81;2210603;81;21686;-79
2020/12/09 00:23:53;;;;;;;35.93;18.77;;;;;;;-1.02;76.35;98696.93;2210170;81;21261;-78
2020/12/09 00:26:55;;;;;;;34.33;19.40;;;;;;;-1.03;76.17;98690.44;2210543;81;21154;-79
2020/12/09 00:29:57;;;;;;;32.53;17.93;;;;;;;-1.04;76.10;98691.23;2214956;80;21193;-79
2020/12/09 00:32:58;;;;;;;30.07;18.00;;;;;;;-1.05;76.32;98702.28;2217289;80;21466;-79
2020/12/09 00:35:59;;;;;;;27.70;15.37;;;;;;;-1.05;76.18;98709.97;2217335;80;21550;-79
2020/12/09 00:39:00;;;;;;;32.47;17.60;;;;;;;-1.06;76.13;98709.48;2217530;80;21126;-80
2020/12/09 00:42:01;;;;;;;32.00;17.03;;;;;;;-1.07;76.35;98707.72;2216935;80;21256;-80
2020/12/09 00:45:02;;;;;;;32.53;17.67;;;;;;;-1.11;76.03;98707.95;2217060;80;21102;-80
2020/12/09 00:48:03;;;;;;;31.53;16.83;;;;;;;-1.15;76.27;98696.17;2216717;80;21299;-79
2020/12/09 00:51:04;;;;;;;29.10;16.77;;;;;;;-1.16;76.57;98696.97;2216615;80;21415;-80
2020/12/09 00:54:05;;;;;;;32.03;17.63;;;;;;;-1.15;76.34;98701.30;2216613;80;21216;-79
2020/12/09 00:57:06;;;;;;;33.10;19.17;;;;;;;-1.18;76.62;98697.29;2216711;80;21415;-79
2020/12/09 01:00:07;;;;;;;30.30;15.90;;;;;;;-1.19;76.56;98689.13;2215661;80;21099;-79
2020/12/09 01:03:09;;;;;;;114.90;50.77;;;;;;;-1.19;76.43;98696.41;2215854;80;21245;-80
2020/12/09 01:06:10;;;;;;;32.20;15.87;;;;;;;-1.21;76.23;98694.16;2216757;80;21134;-80
2020/12/09 01:09:11;;;;;;;30.63;16.70;;;;;;;-1.19;76.73;98694.25;2216346;80;21604;-80
2020/12/09 01:12:12;;;;;;;32.43;18.17;;;;;;;-1.21;76.45;98689.03;2216631;80;21400;-80
2020/12/09 01:15:13;;;;;;;32.77;16.30;;;;;;;-1.24;76.54;98695.27;2217033;80;21396;-80
2020/12/09 01:18:14;;;;;;;31.43;17.73;;;;;;;-1.21;76.65;98693.28;2217691;80;21330;-80
2020/12/09 01:21:18;;;;;;;33.63;17.63;;;;;;;-1.24;76.35;98687.98;2217436;80;21510;-80
2020/12/09 01:24:19;;;;;;;30.93;17.20;;;;;;;-1.21;76.45;98689.03;2217558;80;21419;-81
2020/12/09 01:27:20;;;;;;;31.73;17.10;;;;;;;-1.19;76.44;98695.52;2217131;80;21284;-81
2020/12/09 01:30:21;;;;;;;24.07;14.30;;;;;;;-1.17;76.42;98699.05;2212489;80;21161;-80
2020/12/09 01:33:22;;;;;;;31.90;17.43;;;;;;;-1.19;76.23;98689.13;2209095;81;21432;-80
2020/12/09 01:36:23;;;;;;;54.27;26.17;;;;;;;-1.23;76.23;98686.79;2209752;81;21281;-78
2020/12/09 01:39:24;;;;;;;30.83;17.27;;;;;;;-1.20;77.26;98689.52;2210067;81;21412;-79
2020/12/09 01:42:25;;;;;;;32.87;18.53;;;;;;;-1.02;76.12;98689.24;2210078;81;21236;-80
2020/12/09 01:45:28;;;;;;;32.70;17.50;;;;;;;-1.08;75.84;98695.71;2209951;81;21172;-79
2020/12/09 01:48:29;;;;;;;29.43;15.30;;;;;;;-1.16;75.84;98693.13;2188506;81;21260;-80
2020/12/09 01:51:30;;;;;;;28.57;16.83;;;;;;;-1.20;75.82;98695.92;2210230;81;21158;-80
2020/12/09 01:54:32;;;;;;;26.47;15.47;;;;;;;-1.26;76.21;98690.86;2209371;81;21098;-80
2020/12/09 01:57:33;;;;;;;28.47;15.97;;;;;;;-1.29;76.15;98689.89;2209712;81;21125;-81
2020/12/09 02:00:35;;;;;;;27.93;14.87;;;;;;;-1.31;76.42;98691.89;2209823;81;21518;-79
2020/12/09 02:03:36;;;;;;;25.20;16.47;;;;;;;-1.32;76.17;98684.61;2209608;81;21554;-79
2020/12/09 02:06:37;;;;;;;31.43;17.27;;;;;;;-1.35;76.33;98685.72;2209936;81;21303;-80
2020/12/09 02:09:41;;;;;;;28.43;14.83;;;;;;;-1.35;76.34;98695.95;2210405;81;21138;-80
2020/12/09 02:12:42;;;;;;;26.00;15.83;;;;;;;-1.36;76.42;98699.71;2210052;81;21260;-80
2020/12/09 02:15:43;;;;;;;28.63;16.40;;;;;;;-1.39;76.62;98695.30;2209230;81;21126;-81
2020/12/09 02:18:44;;;;;;;28.43;16.77;;;;;;;-1.39;76.37;98696.98;2209591;81;21543;-79
2020/12/09 02:21:45;;;;;;;26.00;14.03;;;;;;;-1.43;76.71;98704.01;2209893;81;21138;-78
2020/12/09 02:24:46;;;;;;;25.80;15.03;;;;;;;-1.43;76.59;98703.61;2210096;81;21436;-77
2020/12/09 02:27:47;;;;;;;25.10;13.90;;;;;;;-1.45;76.46;98706.48;2210189;81;21280;-78
2020/12/09 02:30:48;;;;;;;28.57;15.47;;;;;;;-1.48;76.59;98702.47;2214462;80;21188;-79
2020/12/09 02:33:49;;;;;;;29.27;16.33;;;;;;;-1.52;76.56;98704.38;2216752;80;21112;-79
2020/12/09 02:36:50;;;;;;;26.30;15.67;;;;;;;-1.55;76.45;98700.77;2217394;80;21399;-81
2020/12/09 02:39:51;;;;;;;28.57;15.67;;;;;;;-1.57;76.66;98704.52;2217506;80;21447;-79
2020/12/09 02:42:52;;;;;;;24.67;14.53;;;;;;;-1.61;76.72;98704.73;2217158;80;21556;-78
2020/12/09 02:45:53;;;;;;;31.17;15.77;;;;;;;-1.67;76.72;98707.34;2217244;80;21407;-79
2020/12/09 02:48:57;;;;;;;32.57;16.17;;;;;;;-1.71;76.58;98708.84;2217064;80;21251;-78
2020/12/09 02:51:57;;;;;;;34.20;17.37;;;;;;;-1.76;76.55;98711.50;2217368;80;21415;-81
2020/12/09 02:54:59;;;;;;;31.00;18.07;;;;;;;-1.78;76.50;98712.21;2217449;80;21161;-81
2020/12/09 02:58:00;;;;;;;30.50;15.70;;;;;;;-1.79;76.62;98717.73;2216855;80;21550;-81
2020/12/09 03:01:01;;;;;;;30.03;16.00;;;;;;;-1.78;76.55;98713.09;2217550;80;21268;-78
2020/12/09 03:04:03;;;;;;;30.20;17.23;;;;;;;-1.71;76.55;98718.20;2217477;80;21419;-79
2020/12/09 03:07:04;;;;;;;29.53;15.83;;;;;;;-1.65;76.58;98722.39;2216976;80;21292;-80
2020/12/09 03:10:05;;;;;;;31.63;17.70;;;;;;;-1.62;76.49;98713.61;2217466;80;21157;-79
2020/12/09 03:13:06;;;;;;;34.33;17.80;;;;;;;-1.54;76.27;98709.80;2218000;80;21142;-79
2020/12/09 03:16:10;;;;;;;30.20;16.07;;;;;;;-1.44;76.15;98712.09;2216532;80;21142;-80
2020/12/09 03:19:11;;;;;;;26.07;16.30;;;;;;;-1.37;75.97;98713.31;2217674;80;21128;-78
2020/12/09 03:22:12;;;;;;;28.57;16.07;;;;;;;-1.30;75.83;98716.30;2217324;80;21447;-80
2020/12/09 03:25:13;;;;;;;32.90;17.60;;;;;;;-1.25;75.74;98726.80;2216934;80;21272;-80
2020/12/09 03:28:14;;;;;;;26.67;16.57;;;;;;;-1.18;75.67;98726.34;2217183;80;21463;-79
2020/12/09 03:31:15;;;;;;;33.60;17.47;;;;;;;-1.14;75.49;98727.40;2214784;80;21272;-81
2020/12/09 03:34:16;;;;;;;33.23;18.00;;;;;;;-1.12;75.53;98720.68;2216741;80;21399;-80
2020/12/09 03:37:18;;;;;;;29.03;17.00;;;;;;;-1.10;75.40;98720.36;2217277;80;21127;-80
2020/12/09 03:40:19;;;;;;;32.83;16.53;;;;;;;-1.04;75.33;98720.70;2217495;80;21168;-79
2020/12/09 03:43:20;;;;;;;37.00;18.57;;;;;;;-1.01;75.28;98714.06;2217031;80;21259;-81
2020/12/09 03:46:21;;;;;;;29.73;16.03;;;;;;;-0.96;75.21;98716.88;2216643;80;21565;-80
2020/12/09 03:49:22;;;;;;;31.73;19.00;;;;;;;-0.90;75.06;98717.20;2217062;80;21146;-78
2020/12/09 03:52:23;;;;;;;31.87;16.13;;;;;;;-0.85;74.80;98713.25;2217089;80;21138;-81
2020/12/09 03:55:24;;;;;;;27.10;17.17;;;;;;;-0.84;74.79;98717.58;2216819;80;21264;-81
2020/12/09 03:58:25;;;;;;;27.27;17.13;;;;;;;-0.83;74.65;98715.89;2217309;80;21410;-79
2020/12/09 04:01:27;;;;;;;31.60;17.10;;;;;;;-0.86;74.72;98717.89;2216977;80;21291;-80
2020/12/09 04:04:28;;;;;;;32.07;17.10;;;;;;;-0.84;74.67;98717.58;2217120;80;21522;-79
2020/12/09 04:07:29;;;;;;;28.17;15.30;;;;;;;-0.80;74.61;98716.94;2215684;80;21210;-78
2020/12/09 04:10:30;;;;;;;25.03;15.63;;;;;;;-0.80;74.44;98711.81;2216968;80;21246;-79
2020/12/09 04:13:31;;;;;;;34.10;18.73;;;;;;;-0.82;74.49;98711.25;2217321;80;21334;-80
2020/12/09 04:16:32;;;;;;;34.20;17.83;;;;;;;-0.80;74.51;98704.53;2216339;80;21310;-79
2020/12/09 04:19:33;;;;;;;32.47;17.50;;;;;;;-0.74;74.56;98698.45;2216043;80;21211;-78
2020/12/09 04:22:34;;;;;;;29.83;16.67;;;;;;;-0.68;74.24;98704.78;2216871;80;21138;-78
2020/12/09 04:25:35;;;;;;;35.70;18.47;;;;;;;-0.66;74.15;98695.49;2216294;80;21342;-81
2020/12/09 04:28:36;;;;;;;27.60;17.53;;;;;;;-0.68;73.90;98691.97;2215935;80;21284;-78
2020/12/09 04:34:53;;;;;;;32.70;18.87;;;;;;;-0.63;74.07;98706.31;2309116;76;22820;-78
2020/12/09 04:37:55;;;;;;;32.63;17.60;;;;;;;-0.69;74.03;98709.83;2259059;79;21120;-78
2020/12/09 04:40:56;;;;;;;32.37;18.33;;;;;;;-0.64;73.99;98709.67;2257895;79;21117;-78
2020/12/09 04:43:57;;;;;;;30.13;16.27;;;;;;;-0.60;73.86;98706.47;2256889;79;21549;-77
2020/12/09 04:46:58;;;;;;;30.60;15.73;;;;;;;-0.59;73.71;98707.35;2256421;79;21136;-77
2020/12/09 04:50:00;;;;;;;33.40;18.53;;;;;;;-0.59;73.68;98703.50;2256131;79;21266;-77
2020/12/09 04:53:01;;;;;;;28.00;17.07;;;;;;;-0.62;73.37;98693.09;2256016;79;21295;-77
2020/12/09 04:56:02;;;;;;;35.80;19.40;;;;;;;-0.70;73.50;98701.66;2256600;79;21108;-78
2020/12/09 04:59:03;;;;;;;27.70;17.07;;;;;;;-0.75;73.55;98696.28;2259461;78;21113;-77
2020/12/09 05:02:04;;;;;;;28.00;15.93;;;;;;;-0.73;73.73;98692.52;2258123;79;21125;-77
2020/12/09 05:05:05;;;;;;;39.03;19.97;;;;;;;-0.74;73.59;98689.08;2254772;79;21679;-77
2020/12/09 05:08:06;;;;;;;43.67;19.23;;;;;;;-0.76;73.57;98694.52;2256270;79;21116;-80
2020/12/09 05:11:08;;;;;;;261.47;29.03;;;;;;;-0.78;73.66;98698.69;2256216;79;21841;-78
2020/12/09 05:14:09;;;;;;;36.57;19.63;;;;;;;-0.76;73.54;98702.21;2256797;79;21303;-78
2020/12/09 05:17:10;;;;;;;32.93;18.70;;;;;;;-0.73;73.45;98694.69;2255835;79;21132;-78
2020/12/09 05:20:11;;;;;;;34.67;17.90;;;;;;;-0.76;73.26;98700.93;2255377;79;21235;-78
2020/12/09 05:23:12;;;;;;;35.57;19.67;;;;;;;-0.78;73.35;98699.97;2255486;79;21425;-77
2020/12/09 05:26:13;;;;;;;33.57;18.17;;;;;;;-0.83;73.31;98706.92;2256314;79;21406;-78
2020/12/09 05:29:15;;;;;;;33.17;17.73;;;;;;;-0.85;73.32;98712.37;2256095;79;21093;-77
2020/12/09 05:32:16;;;;;;;29.53;17.77;;;;;;;-0.87;73.28;98714.81;2255644;78;21290;-77
2020/12/09 05:35:17;;;;;;;37.73;18.93;;;;;;;-0.87;73.32;98703.28;2256408;79;21136;-77
2020/12/09 05:38:18;;;;;;;31.97;18.57;;;;;;;-0.85;73.27;98715.81;2256499;79;21232;-77
2020/12/09 05:41:20;;;;;;;41.50;20.53;;;;;;;-0.90;73.13;98719.77;2255294;79;21262;-77
2020/12/09 05:44:21;;;;;;;29.97;16.73;;;;;;;-0.94;73.25;98715.28;2254970;79;21093;-80
2020/12/09 05:47:22;;;;;;;30.57;18.53;;;;;;;-0.96;73.32;98713.03;2255318;79;21136;-78
2020/12/09 05:50:23;;;;;;;30.50;17.47;;;;;;;-1.00;73.15;98710.70;2254369;79;21219;-78
2020/12/09 05:53:24;;;;;;;35.90;17.80;;;;;;;-1.10;73.31;98716.52;2255199;79;21279;-78
2020/12/09 05:56:27;;;;;;;34.50;18.57;;;;;;;-1.18;73.37;98713.94;2254828;79;21235;-77
2020/12/09 05:59:28;;;;;;;33.33;18.47;;;;;;;-1.32;73.69;98717.89;2254575;79;21259;-78
2020/12/09 06:02:30;;;;;;;35.33;19.77;;;;;;;-1.44;73.75;98713.77;2253792;79;21259;-77
2020/12/09 06:05:31;;;;;;;40.70;16.13;;;;;;;-1.55;74.21;98719.95;2255235;79;21275;-79
2020/12/09 06:08:32;;;;;;;35.37;19.53;;;;;;;-1.65;74.32;98723.67;2255278;79;21242;-79
2020/12/09 06:11:33;;;;;;;38.83;19.63;;;;;;;-1.66;74.59;98721.91;2255131;79;21398;-79
2020/12/09 06:14:34;;;;;;;33.47;20.50;;;;;;;-1.73;74.89;98730.02;2255224;79;21259;-79
2020/12/09 06:17:36;;;;;;;42.93;21.50;;;;;;;-1.81;75.07;98726.11;2254844;79;21456;-80
2020/12/09 06:20:37;;;;;;;37.00;18.87;;;;;;;-1.81;75.02;98733.39;2254954;79;21283;-78
2020/12/09 06:23:38;;;;;;;41.20;22.03;;;;;;;-1.78;75.07;98741.64;2255326;79;21259;-79
2020/12/09 06:26:39;;;;;;;49.63;20.43;;;;;;;-1.70;75.04;98751.56;2254738;79;21560;-76
2020/12/09 06:29:40;;;;;;;36.37;18.57;;;;;;;-1.64;74.92;98761.27;2254174;79;21286;-77
2020/12/09 06:32:41;;;;;;;32.30;18.03;;;;;;;-1.60;74.73;98755.53;2254991;78;21290;-78
2020/12/09 06:35:42;;;;;;;34.60;19.37;;;;;;;-1.59;74.75;98753.45;2254930;79;21243;-78
2020/12/09 06:38:43;;;;;;;34.83;18.10;;;;;;;-1.59;74.74;98758.58;2255047;79;21243;-79
2020/12/09 06:41:44;;;;;;;35.03;18.27;;;;;;;-1.58;74.75;98756.50;2254973;79;21113;-78
2020/12/09 06:44:45;;;;;;;39.47;19.07;;;;;;;-1.56;74.71;98752.35;2257266;79;21144;-76
2020/12/09 06:47:47;;;;;;;29.57;17.60;;;;;;;-1.36;75.67;98762.05;2255581;79;21211;-77
2020/12/09 06:50:48;;;;;;;38.83;20.00;;;;;;;-1.26;74.16;98753.20;2253897;79;21116;-78
2020/12/09 06:53:49;;;;;;;26.07;14.20;;;;;;;-1.31;74.13;98759.35;2253480;79;21290;-78
2020/12/09 06:56:50;;;;;;;32.90;18.53;;;;;;;-1.40;74.30;98763.95;2253406;79;21287;-78
2020/12/09 06:59:52;;;;;;;28.47;15.57;;;;;;;-1.51;74.48;98762.45;2253825;79;21251;-79
2020/12/09 07:02:53;;;;;;;32.37;19.00;;;;;;;-1.53;74.68;98763.16;2254227;79;21263;-79
2020/12/09 07:05:55;;;;;;;35.07;17.60;;;;;;;-1.59;74.88;98765.38;2254125;79;21279;-78
2020/12/09 07:08:56;;;;;;;39.73;17.70;;;;;;;-1.58;74.87;98759.06;2254028;79;21256;-80
2020/12/09 07:11:58;;;;;;;34.60;19.07;;;;;;;-1.48;74.78;98766.87;2254702;79;21243;-80
2020/12/09 07:14:59;;;;;;;34.13;19.73;;;;;;;-1.42;74.52;98772.34;2255595;79;21248;-80
2020/12/09 07:18:00;;;;;;;30.83;16.20;;;;;;;-1.40;74.49;98771.63;2256081;79;21121;-80
2020/12/09 07:21:04;;;;;;;37.40;18.50;;;;;;;-1.36;74.38;98771.02;2256434;79;21116;-81
2020/12/09 07:24:04;;;;;;;35.40;17.53;;;;;;;-1.30;74.22;98770.08;2255801;79;21231;-79
2020/12/09 07:27:09;;;;;;;34.93;20.00;;;;;;;-1.27;74.16;98773.61;2254628;79;21627;-81
2020/12/09 07:30:09;;;;;;;28.90;17.57;;;;;;;-1.23;74.16;98778.11;2254416;79;21642;-80
2020/12/09 07:33:10;;;;;;;31.27;19.20;;;;;;;-1.24;73.94;98778.50;2255571;79;21271;-81
2020/12/09 07:36:13;;;;;;;35.87;18.90;;;;;;;-1.19;73.83;98786.05;2255673;79;21155;-82
2020/12/09 07:39:14;;;;;;;29.87;17.67;;;;;;;-1.12;73.89;98779.20;2255843;79;21235;-81
2020/12/09 07:42:16;;;;;;;31.53;17.07;;;;;;;-1.12;73.53;98770.23;2254896;79;21294;-79
2020/12/09 07:45:17;;;;;;;28.67;16.90;;;;;;;-1.11;73.78;98780.96;2255907;79;21239;-81
2020/12/09 07:48:21;;;;;;;28.57;18.23;;;;;;;-1.09;73.53;98776.80;2256063;79;21246;-80
2020/12/09 07:51:23;;;;;;;34.27;18.07;;;;;;;-1.05;73.53;98777.86;2255061;79;21275;-80
2020/12/09 07:54:24;;;;;;;31.70;17.40;;;;;;;-1.04;73.63;98780.91;2256029;79;21607;-81
2020/12/09 07:57:25;;;;;;;27.57;16.27;;;;;;;-1.12;73.53;98779.20;2255662;79;21077;-81
2020/12/09 08:00:26;;;;;;;35.57;16.60;;;;;;;-1.12;73.64;98777.91;2255727;79;21243;-80
2020/12/09 08:03:27;;;;;;;31.60;17.63;;;;;;;-1.13;73.64;98777.83;2255878;79;21259;-81
2020/12/09 08:06:28;;;;;;;58.77;16.77;;;;;;;-1.18;73.79;98784.38;2256054;79;21237;-80
2020/12/09 08:09:30;;;;;;;27.00;16.70;;;;;;;-1.14;73.77;98785.03;2255868;79;21537;-80
2020/12/09 08:12:31;;;;;;;42.97;20.10;;;;;;;-1.10;73.78;98786.97;2255704;79;21271;-81
2020/12/09 08:15:38;;;;;;;36.63;20.67;;;;;;;-1.05;73.77;98781.70;2256156;79;21440;-81
2020/12/09 08:18:39;;;;;;;35.77;17.87;;;;;;;-0.99;73.43;98787.17;2255386;79;21258;-80
2020/12/09 08:21:40;;;;;;;31.10;18.60;;;;;;;-0.97;73.32;98789.41;2254395;79;21317;-81
2020/12/09 08:24:41;;;;;;;32.23;17.23;;;;;;;-1.05;73.37;98802.20;2255809;79;21117;-81
2020/12/09 08:27:42;;;;;;;33.73;16.83;;;;;;;-0.99;73.43;98808.95;2256248;79;21223;-81
2020/12/09 08:30:43;;;;;;;31.20;18.53;;;;;;;-0.96;73.25;98805.27;2254994;79;21246;-80
2020/12/09 08:33:44;;;;;;;39.10;18.97;;;;;;;-0.86;73.40;98793.49;2254786;78;21278;-81
2020/12/09 08:36:45;;;;;;;32.47;16.43;;;;;;;-0.76;75.09;98794.48;2251780;78;21127;-81
2020/12/09 08:39:47;;;;;;;33.17;18.10;;;;;;;-0.68;72.99;98784.25;2251937;78;21250;-80
2020/12/09 08:42:48;;;;;;;30.40;19.40;;;;;;;-0.62;73.00;98786.66;2248069;78;21410;-82
2020/12/09 08:45:49;;;;;;;26.90;15.70;;;;;;;-0.61;72.65;98783.30;2249010;79;21081;-82
2020/12/09 08:48:50;;;;;;;30.57;18.93;;;;;;;-0.53;72.70;98781.63;2247633;79;21147;-79
2020/12/09 08:51:51;;;;;;;28.77;16.30;;;;;;;-0.51;72.37;98773.63;2246756;79;21109;-81
2020/12/09 08:54:52;;;;;;;30.63;17.97;;;;;;;-0.58;72.29;98774.09;2246785;79;21160;-81
2020/12/09 08:57:53;;;;;;;38.33;19.80;;;;;;;-0.56;72.33;98774.17;2247280;79;21125;-80
2020/12/09 09:00:54;;;;;;;31.80;17.47;;;;;;;-0.55;72.43;98780.67;2247139;79;21549;-80
2020/12/09 09:03:58;;;;;;;28.20;15.67;;;;;;;-0.52;72.31;98779.55;2246180;79;21286;-80
2020/12/09 09:06:59;;;;;;;31.93;17.33;;;;;;;-0.49;72.33;98788.69;2245712;79;21944;-79
2020/12/09 09:10:00;;;;;;;30.80;18.00;;;;;;;-0.47;72.08;98784.92;2246168;79;21283;-79
2020/12/09 09:13:01;;;;;;;36.00;19.07;;;;;;;-0.52;72.35;98787.64;2246748;79;21299;-77
2020/12/09 09:16:02;;;;;;;34.50;20.50;;;;;;;-0.40;72.50;98794.31;2247479;79;21244;-79
2020/12/09 09:19:03;;;;;;;37.30;20.07;;;;;;;-0.26;72.23;98792.48;2246375;79;21255;-79
2020/12/09 09:25:23;;;;;;;33.97;20.07;;;;;;;0.00;71.61;98786.18;2296782;77;23222;-81
2020/12/09 09:28:24;;;;;;;31.37;17.90;;;;;;;-0.02;71.34;98786.07;2267663;78;21253;-78
2020/12/09 09:31:26;;;;;;;35.50;19.33;;;;;;;-0.07;71.37;98782.78;2266622;78;21249;-78
2020/12/09 09:34:27;;;;;;;29.77;16.43;;;;;;;-0.07;71.30;98781.09;2266877;78;21548;-76
2020/12/09 09:37:28;;;;;;;37.80;21.63;;;;;;;0.40;71.94;98781.80;2267283;78;21273;-78
2020/12/09 09:40:29;;;;;;;33.97;18.97;;;;;;;0.42;71.05;98784.05;2267467;78;21228;-78
2020/12/09 09:43:30;;;;;;;40.80;20.77;;;;;;;1.27;74.07;98786.97;2268026;78;21611;-80
2020/12/09 09:46:31;;;;;;;35.07;19.97;;;;;;;1.36;69.12;98786.11;2268004;78;21221;-79
2020/12/09 09:49:32;;;;;;;52.57;23.13;;;;;;;0.74;67.95;98782.67;2267995;78;21253;-78
2020/12/09 09:52:33;;;;;;;57.20;20.70;;;;;;;0.45;69.38;98789.34;2267545;78;21460;-79
2020/12/09 09:55:36;;;;;;;288.43;32.73;;;;;;;0.30;69.70;98796.74;2232590;78;21457;-79
2020/12/09 09:58:37;;;;;;;37.83;17.87;;;;;;;0.25;70.09;98799.48;2181603;81;21124;-79
2020/12/09 10:01:38;;;;;;;33.77;19.40;;;;;;;0.26;70.03;98793.54;2183682;82;21120;-80
2020/12/09 10:04:39;;;;;;;36.43;19.33;;;;;;;0.19;70.09;98799.56;2183434;82;21843;-79
2020/12/09 10:07:41;;;;;;;39.07;21.80;;;;;;;0.14;69.93;98801.02;2180949;82;21250;-79
2020/12/09 10:10:42;;;;;;;47.60;22.37;;;;;;;0.05;70.24;98797.97;2181945;81;21520;-79
2020/12/09 10:13:43;;;;;;;41.57;21.83;;;;;;;-0.03;70.43;98797.14;2182009;82;21259;-78
2020/12/09 10:16:46;;;;;;;36.90;18.10;;;;;;;-0.04;70.51;98795.77;2181323;82;21250;-80
2020/12/09 10:19:47;;;;;;;34.27;19.43;;;;;;;0.01;70.76;98793.08;2180674;82;21152;-79
2020/12/09 10:22:48;;;;;;;44.40;22.37;;;;;;;0.03;70.57;98801.73;2181140;82;21270;-79
2020/12/09 10:25:50;;;;;;;55.37;22.83;;;;;;;0.13;70.83;98801.81;2179823;81;21278;-79
2020/12/09 10:28:51;;;;;;;40.30;20.50;;;;;;;0.23;70.47;98795.06;2180317;81;21258;-78
2020/12/09 10:31:52;;;;;;;43.27;23.30;;;;;;;0.31;70.16;98789.92;2180686;82;21548;-80
2020/12/09 10:34:53;;;;;;;46.23;23.47;;;;;;;0.42;70.10;98796.89;2180527;82;21608;-78
2020/12/09 10:37:54;;;;;;;54.87;25.77;;;;;;;0.47;69.83;98794.14;2180616;81;21258;-81
2020/12/09 10:40:55;;;;;;;42.07;23.07;;;;;;;0.53;70.02;98800.47;2180890;82;21262;-80
2020/12/09 10:43:56;;;;;;;44.93;21.00;;;;;;;0.61;69.29;98799.17;2180058;82;21172;-79
2020/12/09 10:46:57;;;;;;;45.20;23.17;;;;;;;0.60;69.48;98793.95;2180928;82;21246;-80
2020/12/09 10:49:58;;;;;;;43.60;22.80;;;;;;;0.54;69.31;98795.81;2181009;81;21243;-80
2020/12/09 10:53:00;;;;;;;54.93;27.33;;;;;;;0.54;69.56;98793.65;2181132;81;21148;-80
2020/12/09 10:56:01;;;;;;;83.13;24.17;;;;;;;0.57;69.49;98786.09;2181365;81;21442;-80
2020/12/09 10:59:02;;;;;;;44.43;25.53;;;;;;;0.62;69.46;98782.95;2181796;82;21239;-79
2020/12/09 11:02:03;;;;;;;72.27;24.13;;;;;;;0.71;69.47;98788.94;2181044;82;21104;-79
2020/12/09 11:05:04;;;;;;;80.53;25.67;;;;;;;0.76;69.32;98788.77;2180960;82;21662;-79
2020/12/09 11:08:05;;;;;;;40.47;22.90;;;;;;;0.85;68.92;98788.34;2181415;81;21164;-80
2020/12/09 11:11:06;;;;;;;42.70;23.47;;;;;;;0.82;68.77;98784.33;2180356;82;21486;-80
2020/12/09 11:14:07;;;;;;;41.93;21.83;;;;;;;0.80;68.79;98782.09;2179929;81;21263;-79
2020/12/09 11:17:08;;;;;;;41.53;22.73;;;;;;;0.73;68.50;98778.34;2180206;82;21120;-80
2020/12/09 11:20:10;;;;;;;43.30;22.90;;;;;;;0.63;68.17;98770.58;2180389;82;21179;-79
2020/12/09 11:23:12;;;;;;;41.20;21.47;;;;;;;0.54;68.80;98773.09;2180314;81;21330;-79
2020/12/09 11:26:13;;;;;;;68.30;22.50;;;;;;;0.52;68.86;98766.61;2180447;81;21266;-78
2020/12/09 11:29:14;;;;;;;40.47;23.53;;;;;;;0.54;68.91;98762.42;2181277;82;21112;-79
2020/12/09 11:32:16;;;;;;;41.50;22.80;;;;;;;0.56;69.02;98762.09;2181583;81;21128;-79
2020/12/09 11:35:17;;;;;;;42.53;21.63;;;;;;;0.57;68.69;98759.13;2180944;82;21136;-79
2020/12/09 11:38:18;;;;;;;49.07;24.73;;;;;;;0.55;68.57;98752.63;2180782;82;21297;-79
2020/12/09 11:41:19;;;;;;;53.93;25.47;;;;;;;0.57;68.83;98757.44;2180282;81;21583;-80
2020/12/09 11:44:20;;;;;;;47.40;24.87;;;;;;;0.61;68.45;98755.90;2181467;82;21176;-79
2020/12/09 11:47:22;;;;;;;45.23;24.03;;;;;;;0.57;68.73;98749.73;2182299;82;21108;-79
2020/12/09 11:50:23;;;;;;;49.50;25.80;;;;;;;0.54;68.59;98749.58;2180992;82;21254;-80
2020/12/09 11:53:24;;;;;;;43.73;23.17;;;;;;;0.52;68.73;98747.34;2180857;82;21116;-79
2020/12/09 11:56:26;;;;;;;41.73;23.03;;;;;;;0.50;68.37;98739.97;2172685;82;21279;-78
2020/12/09 11:59:29;;;;;;;41.43;23.07;;;;;;;0.43;68.74;98744.31;2164745;82;21239;-79
2020/12/09 12:02:30;;;;;;;43.63;23.03;;;;;;;1.03;71.49;98733.99;2156144;82;21260;-80
2020/12/09 12:05:33;;;;;;;38.93;20.37;;;;;;;1.18;67.42;98733.42;2156889;82;21247;-79
2020/12/09 12:08:34;;;;;;;35.47;20.97;;;;;;;0.81;67.51;98732.46;2155474;82;21279;-79
2020/12/09 12:11:35;;;;;;;41.10;21.93;;;;;;;0.57;68.02;98743.31;2156000;82;21434;-77
2020/12/09 12:14:37;;;;;;;36.37;20.47;;;;;;;0.47;68.49;98743.66;2156450;82;21255;-79
2020/12/09 12:17:38;;;;;;;38.50;20.67;;;;;;;0.37;68.40;98738.88;2156455;82;21287;-79
2020/12/09 12:20:39;;;;;;;37.17;19.87;;;;;;;0.27;68.82;98737.53;2156369;82;21777;-79
2020/12/09 12:23:41;;;;;;;51.93;21.27;;;;;;;0.28;68.95;98729.03;2156958;82;21181;-78
2020/12/09 12:26:42;;;;;;;40.57;21.57;;;;;;;0.28;69.08;98740.59;2156488;82;21259;-79
2020/12/09 12:29:43;;;;;;;38.37;22.40;;;;;;;0.25;68.88;98730.56;2156577;82;21287;-79
2020/12/09 12:32:44;;;;;;;35.97;21.20;;;;;;;0.16;69.13;98732.67;2155467;82;21255;-80
2020/12/09 12:35:45;;;;;;;39.00;22.33;;;;;;;0.18;69.20;98734.91;2155680;82;21259;-79
2020/12/09 12:38:46;;;;;;;37.33;21.77;;;;;;;0.20;69.41;98739.72;2155204;82;21286;-78
2020/12/09 12:41:47;;;;;;;42.13;23.43;;;;;;;0.14;69.37;98736.44;2155112;82;21243;-81
2020/12/09 12:44:48;;;;;;;37.97;20.03;;;;;;;0.07;69.45;98734.37;2155446;82;21343;-80
2020/12/09 12:47:50;;;;;;;37.13;20.23;;;;;;;0.06;69.77;98736.45;2154474;82;21279;-79
2020/12/09 12:50:51;;;;;;;42.87;21.37;;;;;;;0.04;69.75;98731.64;2155367;82;21279;-80
2020/12/09 12:53:52;;;;;;;63.03;24.10;;;;;;;0.08;69.76;98737.81;2155434;82;21282;-79
2020/12/09 12:56:53;;;;;;;30.40;15.53;;;;;;;0.11;69.64;98733.72;2150317;82;21300;-82
2020/12/09 12:59:54;;;;;;;40.83;21.57;;;;;;;0.21;73.46;98732.09;2144306;83;21183;-80
2020/12/09 13:02:55;;;;;;;42.10;23.50;;;;;;;3.56;72.06;98719.05;2143236;82;21181;-80
2020/12/09 13:05:56;;;;;;;43.43;23.63;;;;;;;3.43;61.99;98703.91;2141170;82;21272;-79
2020/12/09 13:08:57;;;;;;;41.40;21.03;;;;;;;2.37;64.45;98725.87;2140366;82;21928;-79
2020/12/09 13:11:58;;;;;;;36.67;22.10;;;;;;;1.76;64.74;98724.93;2141510;83;21191;-79
2020/12/09 13:15:00;;;;;;;38.53;21.47;;;;;;;1.32;65.77;98724.18;2142400;82;21263;-80
2020/12/09 13:18:01;;;;;;;40.10;21.83;;;;;;;1.58;67.76;98724.55;2141913;83;21268;-80
2020/12/09 13:21:02;;;;;;;35.37;21.87;;;;;;;1.65;66.14;98728.28;2143091;82;21260;-79
2020/12/09 13:24:03;;;;;;;40.43;22.00;;;;;;;1.37;66.17;98721.01;2141917;82;21296;-80
2020/12/09 13:27:06;;;;;;;38.67;22.03;;;;;;;1.22;66.30;98719.02;2142830;83;21268;-80
2020/12/09 13:30:07;;;;;;;90.13;26.00;;;;;;;1.88;70.59;98717.75;2143487;82;21239;-79
2020/12/09 13:33:12;;;;;;;41.27;22.20;;;;;;;2.17;65.82;98721.58;2143132;82;21565;-81
2020/12/09 13:36:12;;;;;;;40.00;22.77;;;;;;;2.05;67.63;98710.75;2142915;83;21121;-80
2020/12/09 13:39:13;;;;;;;41.80;23.20;;;;;;;2.02;64.65;98715.77;2143317;82;21450;-79
2020/12/09 13:42:14;;;;;;;47.30;23.77;;;;;;;1.39;65.11;98721.95;2143652;82;21241;-81
2020/12/09 13:45:15;;;;;;;43.37;22.33;;;;;;;0.92;66.00;98719.75;2144412;82;21165;-81
2020/12/09 13:48:16;;;;;;;44.77;23.23;;;;;;;0.59;66.83;98710.88;2144034;82;21268;-81
2020/12/09 13:51:17;;;;;;;57.77;25.97;;;;;;;0.41;67.54;98702.68;2144450;83;21267;-81
2020/12/09 13:54:18;;;;;;;48.20;24.63;;;;;;;0.26;67.89;98711.79;2144249;82;21252;-80
2020/12/09 13:57:19;;;;;;;57.90;25.70;;;;;;;0.23;68.26;98709.07;2143237;82;21271;-81
2020/12/09 14:00:20;;;;;;;77.20;32.00;;;;;;;0.19;68.32;98718.30;2144871;82;21243;-80
2020/12/09 14:03:21;;;;;;;64.30;30.70;;;;;;;0.15;68.48;98716.79;2143861;82;21976;-78